Flight Track Log - Related Links

Times and Time Zones

All times are in EDT time to prevent confusion due to time zone crossing. See the DAL1118 flight status page for this flight to view local times or setup timezone preferences in your user account.

Time Position Orientation Groundspeed Altitude Reporting Facility
EDT Latitude Longitude Course Direction KTS MPH feet Rate Location/Type
Thu 10:23:08 PM 40.8111 -111.9806 17° North 164 189 5,000  Level Salt Lake Center
Thu 10:23:27 PM 40.8264 -111.9811 358° North 169 194 5,700 1,385 Climbing Salt Lake Center
Thu 10:23:34 PM 40.8264 -111.9792 90° East 162 186 5,600 1,304 Descending Salt Lake Center
Thu 10:24:36 PM 40.8878 -111.9881 354° North 224 258 7,200 2,195 Climbing Salt Lake Center
Thu 10:25:37 PM 40.9608 -111.9978 354° North 261 300 10,100 3,024 Climbing Salt Lake Center
Thu 10:26:00 PM 41.1855 -111.8100 15° North  Level Estimated
Thu 10:26:39 PM 41.0417 -112.0103 353° North 287 330 13,400  Level Salt Lake Center
Thu 10:27:00 PM 41.2834 -111.7627 20° North  Level FlightAware Approximate
Thu 10:27:40 PM 41.1200 -111.9619 25° Northeast 342 394 14,900  Level Salt Lake Center
Thu 10:28:00 PM 41.3827 -111.7206 17° North  Level Estimated
Thu 10:28:42 PM 41.1964 -111.8558 46° Northeast 392 451 16,500  Level Salt Lake Center
Thu 10:29:44 PM 41.3119 -111.7658 30° Northeast 399 459 19,500 2,390 Climbing Salt Lake Center
Thu 10:30:45 PM 41.4142 -111.6992 26° Northeast 407 468 21,400 1,805 Climbing Salt Lake Center
Thu 10:31:47 PM 41.5203 -111.6311 26° Northeast 420 483 23,200 1,610 Climbing Salt Lake Center
Thu 10:32:48 PM 41.6300 -111.5661 24° Northeast 430 495 24,700 1,415 Climbing Salt Lake Center
Thu 10:33:50 PM 41.7475 -111.5219 16° North 439 505 26,100 1,268 Climbing Salt Lake Center
Thu 10:34:51 PM 41.8658 -111.4747 17° North 445 512 27,300 1,268 Climbing Salt Lake Center
Thu 10:35:53 PM 41.9872 -111.4278 16° North 452 520 28,700 98 Climbing Salt Lake Center
Thu 10:36:54 PM 42.1058 -111.3789 17° North 446 513 27,500 -1,415 Descending Salt Lake Center
Thu 10:37:56 PM 42.2497 -111.3228 16° North 449 517 25,800 -1,210 Descending Salt Lake Center
Thu 10:38:58 PM 42.3678 -111.2747 17° North 444 511 25,000 -537 Descending Salt Lake Center
Thu 10:39:59 PM 42.4861 -111.2272 16° North 444 511 24,700 -585 Descending Salt Lake Center
Thu 10:41:01 PM 42.5958 -111.1831 17° North 416 479 23,800 -1,561 Descending Salt Lake Center
Thu 10:42:02 PM 42.7097 -111.1364 17° North 406 467 21,500 -2,293 Descending Salt Lake Center
Thu 10:43:04 PM 42.8153 -111.0939 16° North 398 458 19,100 -2,226 Descending Salt Lake Center
Thu 10:44:06 PM 42.9164 -111.0511 17° North 383 441 16,900 -1,951 Descending Salt Lake Center
Thu 10:45:07 PM 43.0064 -111.0133 17° North 343 395 15,100 -1,610 Descending Salt Lake Center
Thu 10:46:09 PM 43.0861 -110.9817 16° North 305 351 13,600 -1,073 Descending Salt Lake Center
Thu 10:47:10 PM 43.1631 -110.9500 17° North 291 335 12,900 -390 Descending Salt Lake Center
Thu 10:48:12 PM 43.2394 -110.9169 17° North 287 330 12,800 -1,016 Descending Salt Lake Center
Thu 10:49:14 PM 43.3156 -110.8800 19° North 248 285 10,800 -1,366 Descending Salt Lake Center
Thu 10:50:15 PM 43.3692 -110.8536 20° North 219 252 10,000 -683 Descending Salt Lake Center
Thu 10:51:17 PM 43.4144 -110.8328 18° North 193 222 9,400 -293 Descending Salt Lake Center
Thu 10:52:18 PM 43.4531 -110.8136 20° North 168 193 9,400 -390 Level Salt Lake Center
Thu 10:53:20 PM 43.4894 -110.7958 20° North 151 174 8,600 -774 Descending Salt Lake Center
Thu 10:54:22 PM 43.5286 -110.7767 20° North 148 170 7,800 -780 Descending Salt Lake Center
Thu 10:55:23 PM 43.5672 -110.7575 20° North 148 170 7,000 -732 Descending Salt Lake Center
Thu 10:56:25 PM 43.6100 -110.7364 20° North 146 168 6,300 -677 Descending Salt Lake Center

Login

Don't have an account? Register now (free) for customized features, flight alerts, and more!